Time;durP1;ratioP1;P1;durP2;ratioP2;P2;SDS_P1;SDS_P2;PMS_P1;PMS_P2;Temp;Humidity;BMP_temperature;BMP_pressure;BME280_temperature;BME280_humidity;BME280_pressure;Samples;Min_cycle;Max_cycle;Signal;HPM_P1;HPM_P2
2022/11/16 00:01:00;;;;;;;12.63;9.90;;;11.00;99.90;;;;;;5067395;28;20119;-75
2022/11/16 00:03:25;;;;;;;12.85;11.02;;;11.00;99.90;;;;;;5092127;28;20068;-73
2022/11/16 00:05:59;;;;;;;13.73;10.02;;;11.00;99.90;;;;;;5078107;28;20460;-75
2022/11/16 00:08:27;;;;;;;14.18;11.48;;;11.00;99.90;;;;;;5096010;28;20479;-73
2022/11/16 00:10:52;;;;;;;13.07;10.70;;;11.00;99.90;;;;;;5090568;28;20134;-73
2022/11/16 00:13:18;;;;;;;14.52;11.15;;;11.00;99.90;;;;;;5059268;28;20126;-74
2022/11/16 00:15:54;;;;;;;13.60;10.73;;;11.00;99.90;;;;;;5075421;28;20056;-74
2022/11/16 00:18:20;;;;;;;12.43;10.60;;;11.00;99.90;;;;;;5074918;28;20047;-74
2022/11/16 00:20:45;;;;;;;13.68;11.27;;;11.00;99.90;;;;;;5072976;28;20457;-74
2022/11/16 00:23:11;;;;;;;14.98;10.48;;;11.00;99.90;;;;;;5081863;28;20036;-74
2022/11/16 00:25:37;;;;;;;13.10;9.00;;;11.00;99.90;;;;;;5086782;28;20126;-76
2022/11/16 00:28:02;;;;;;;14.15;11.38;;;11.00;99.90;;;;;;5063196;28;20048;-74
2022/11/16 00:30:28;;;;;;;13.57;10.63;;;11.10;99.90;;;;;;5061765;28;20051;-75
2022/11/16 00:32:54;;;;;;;13.13;10.07;;;11.10;99.90;;;;;;5076728;28;20079;-76
2022/11/16 00:35:19;;;;;;;14.38;10.80;;;11.10;99.90;;;;;;5075036;28;20047;-74
2022/11/16 00:37:45;;;;;;;13.60;11.23;;;11.10;99.90;;;;;;5077476;28;20055;-75
2022/11/16 00:40:11;;;;;;;15.50;11.77;;;11.00;99.90;;;;;;5073652;28;20040;-74
2022/11/16 00:42:37;;;;;;;12.18;9.45;;;11.00;99.90;;;;;;5066179;28;20065;-75
2022/11/16 00:45:03;;;;;;;13.43;11.20;;;11.10;99.90;;;;;;5076973;28;20055;-74
2022/11/16 00:47:28;;;;;;;13.30;11.20;;;11.10;99.90;;;;;;5087139;28;20118;-75
2022/11/16 00:49:54;;;;;;;12.18;9.40;;;11.10;99.90;;;;;;5071842;28;20177;-75
2022/11/16 00:52:20;;;;;;;15.02;11.10;;;11.10;99.90;;;;;;5087829;28;20461;-75
2022/11/16 00:54:46;;;;;;;13.88;10.77;;;11.10;99.90;;;;;;5075161;28;20377;-75
2022/11/16 00:57:11;;;;;;;13.50;10.77;;;11.10;99.90;;;;;;5072875;28;20052;-75
2022/11/16 00:59:37;;;;;;;15.57;10.93;;;11.10;99.90;;;;;;5093843;28;20049;-73
2022/11/16 01:02:02;;;;;;;15.25;11.40;;;11.10;99.90;;;;;;5073213;28;20109;-73
2022/11/16 01:04:28;;;;;;;15.00;10.93;;;11.00;99.90;;;;;;5066160;28;20089;-74
2022/11/16 01:06:54;;;;;;;14.68;11.02;;;11.10;99.90;;;;;;5058962;28;20097;-73
2022/11/16 01:09:19;;;;;;;13.40;10.27;;;11.10;99.90;;;;;;5078233;28;20042;-74
2022/11/16 01:14:29;;;;;;;13.30;10.80;;;11.10;99.90;;;;;;5094194;28;20070;-75
2022/11/16 01:16:55;;;;;;;13.60;10.55;;;11.10;99.90;;;;;;5065199;28;20536;-72
2022/11/16 01:19:21;;;;;;;13.15;10.50;;;11.10;99.90;;;;;;5088843;28;20044;-75
2022/11/16 01:21:46;;;;;;;13.60;10.35;;;11.10;99.90;;;;;;5076830;28;20134;-75
2022/11/16 01:24:12;;;;;;;11.88;9.27;;;11.10;99.90;;;;;;5069605;28;20051;-75
2022/11/16 01:26:38;;;;;;;13.77;11.25;;;11.10;99.90;;;;;;5090904;28;20502;-72
2022/11/16 01:29:03;;;;;;;15.10;10.85;;;11.10;99.90;;;;;;5076573;28;20073;-73
2022/11/16 01:31:29;;;;;;;13.00;10.35;;;11.10;99.90;;;;;;5077663;28;20080;-74
2022/11/16 01:33:55;;;;;;;12.55;9.73;;;11.10;99.90;;;;;;5111000;28;20046;-74
2022/11/16 01:36:20;;;;;;;14.07;10.30;;;11.10;99.90;;;;;;5077320;28;20127;-73
2022/11/16 01:38:46;;;;;;;12.50;9.25;;;11.20;99.90;;;;;;5107200;28;20040;-74
2022/11/16 01:41:14;;;;;;;12.35;9.63;;;11.20;99.90;;;;;;5074357;28;20258;-74
2022/11/16 01:43:51;;;;;;;12.98;9.43;;;11.20;99.90;;;;;;5074760;28;20562;-74
2022/11/16 01:46:16;;;;;;;12.00;9.60;;;11.20;99.90;;;;;;5078604;28;20128;-74
2022/11/16 01:48:44;;;;;;;11.85;8.15;;;11.20;99.90;;;;;;5060571;28;20074;-74
2022/11/16 01:51:10;;;;;;;13.65;9.07;;;11.20;99.90;;;;;;5078164;28;20062;-74
2022/11/16 01:53:36;;;;;;;12.20;9.50;;;11.20;99.90;;;;;;5080033;28;20043;-74
2022/11/16 01:56:02;;;;;;;13.80;9.77;;;11.20;99.90;;;;;;5094642;28;20471;-81
2022/11/16 01:58:28;;;;;;;13.25;8.85;;;11.20;99.90;;;;;;5085356;28;20050;-77
2022/11/16 02:00:54;;;;;;;14.32;9.63;;;11.20;99.90;;;;;;5063849;28;20039;-78
2022/11/16 02:03:20;;;;;;;12.90;9.75;;;11.20;99.90;;;;;;5044238;28;20051;-77
2022/11/16 02:06:22;;;;;;;12.40;9.27;;;11.20;99.90;;;;;;5075118;28;20097;-78
2022/11/16 02:12:13;;;;;;;12.27;9.70;;;11.10;99.90;;;;;;5095203;28;20086;-76
2022/11/16 02:15:03;;;;;;;12.88;9.40;;;11.10;99.90;;;;;;5074790;28;20044;-75
2022/11/16 02:17:54;;;;;;;13.27;9.65;;;11.10;99.90;;;;;;5091083;28;20060;-74
2022/11/16 02:20:43;;;;;;;12.93;9.13;;;11.10;99.90;;;;;;5088692;28;20523;-76
2022/11/16 02:23:50;;;;;;;13.32;9.80;;;11.10;99.90;;;;;;5096985;28;20048;-75
2022/11/16 02:26:30;;;;;;;14.52;10.07;;;11.10;99.90;;;;;;5071729;28;20061;-78
2022/11/16 02:29:35;;;;;;;13.20;8.63;;;11.10;99.90;;;;;;5078274;28;20485;-76
2022/11/16 02:32:08;;;;;;;13.40;8.85;;;11.10;99.90;;;;;;5093025;28;20123;-79
2022/11/16 02:35:12;;;;;;;11.70;8.48;;;11.10;99.90;;;;;;5087894;28;20392;-79
2022/11/16 02:37:45;;;;;;;10.95;8.15;;;11.10;99.90;;;;;;5090986;28;20060;-75
2022/11/16 02:40:15;;;;;;;11.13;8.23;;;11.10;99.90;;;;;;5091536;28;20117;-77
2022/11/16 02:42:50;;;;;;;10.90;7.15;;;11.10;99.90;;;;;;5061169;28;20541;-79
2022/11/16 02:45:21;;;;;;;11.93;9.02;;;11.10;99.90;;;;;;5096784;28;20085;-79
2022/11/16 02:47:49;;;;;;;11.70;8.27;;;11.10;99.90;;;;;;5069854;28;20126;-77
2022/11/16 02:50:18;;;;;;;13.27;9.02;;;11.10;99.90;;;;;;5090431;28;20488;-75
2022/11/16 02:52:44;;;;;;;12.30;8.82;;;11.10;99.90;;;;;;5077637;28;20044;-78
2022/11/16 02:55:11;;;;;;;13.38;8.15;;;11.10;99.90;;;;;;5057389;28;20395;-77
2022/11/16 02:58:03;;;;;;;12.27;9.18;;;11.10;99.90;;;;;;5069227;28;20035;-79
2022/11/16 03:00:46;;;;;;;11.45;8.63;;;11.10;99.90;;;;;;5080250;28;20044;-81
2022/11/16 03:03:34;;;;;;;12.18;8.55;;;11.10;99.90;;;;;;5096699;28;20063;-77
2022/11/16 03:06:15;;;;;;;12.43;8.45;;;11.10;99.90;;;;;;5077566;28;20130;-76
2022/11/16 03:08:45;;;;;;;12.50;9.05;;;11.10;99.90;;;;;;5061025;28;20048;-78
2022/11/16 03:14:02;;;;;;;13.57;9.07;;;11.10;99.90;;;;;;5082420;28;22176;-77
2022/11/16 03:16:35;;;;;;;12.48;8.52;;;11.10;99.90;;;;;;5070495;28;20131;-79
2022/11/16 03:19:09;;;;;;;14.30;9.85;;;11.10;99.90;;;;;;5077929;28;20052;-78
2022/11/16 03:21:58;;;;;;;14.35;9.30;;;11.00;99.90;;;;;;5080206;28;20494;-76
2022/11/16 03:24:24;;;;;;;13.27;9.90;;;11.00;99.90;;;;;;5074310;28;20046;-78
2022/11/16 03:26:58;;;;;;;12.77;9.00;;;11.00;99.90;;;;;;5071142;28;20044;-76
2022/11/16 03:29:31;;;;;;;13.15;9.57;;;11.00;99.90;;;;;;5092215;28;20098;-80
2022/11/16 03:32:15;;;;;;;13.90;10.48;;;11.00;99.90;;;;;;5071279;28;20096;-76
2022/11/16 03:34:46;;;;;;;13.93;9.48;;;11.00;99.90;;;;;;5090941;28;20039;-78
2022/11/16 03:37:12;;;;;;;15.02;10.80;;;11.00;99.90;;;;;;5060201;28;20044;-83
2022/11/16 03:39:39;;;;;;;14.82;10.32;;;11.00;99.90;;;;;;5076822;28;20101;-78
2022/11/16 03:42:12;;;;;;;17.40;11.27;;;11.00;99.90;;;;;;5063731;28;20131;-78
2022/11/16 03:44:40;;;;;;;13.90;11.15;;;11.00;99.90;;;;;;5075909;28;20048;-77
2022/11/16 03:47:06;;;;;;;16.38;11.00;;;11.00;99.90;;;;;;5068695;28;20062;-78
2022/11/16 03:49:31;;;;;;;15.40;10.52;;;11.00;99.90;;;;;;5066916;28;20483;-80
2022/11/16 03:51:57;;;;;;;15.98;11.57;;;11.00;99.90;;;;;;5097400;28;20043;-77
2022/11/16 03:54:23;;;;;;;15.52;11.52;;;11.00;99.90;;;;;;5086436;28;20052;-76
2022/11/16 03:56:49;;;;;;;12.82;10.27;;;11.00;99.90;;;;;;5073666;28;20066;-77
2022/11/16 03:59:15;;;;;;;14.90;11.60;;;11.00;99.90;;;;;;5079674;28;20472;-81
2022/11/16 04:01:40;;;;;;;14.75;10.95;;;11.00;99.90;;;;;;5082494;28;20490;-79
2022/11/16 04:04:06;;;;;;;15.65;12.02;;;11.00;99.90;;;;;;5074398;28;20048;-78
2022/11/16 04:25:50;;;;;;;18.98;14.48;;;11.00;99.90;;;;;;5094353;28;20439;-76
2022/11/16 04:28:21;;;;;;;18.25;13.95;;;10.90;99.90;;;;;;5070531;28;20052;-77
2022/11/16 04:39:05;;;;;;;18.88;13.90;;;11.00;99.90;;;;;;5095537;28;20079;-76
2022/11/16 04:44:16;;;;;;;18.52;13.95;;;10.90;99.90;;;;;;5095381;28;20058;-79
2022/11/16 04:49:26;;;;;;;18.08;14.73;;;10.90;99.90;;;;;;5065462;28;20102;-76
2022/11/16 04:51:52;;;;;;;18.13;15.30;;;10.90;99.90;;;;;;5074604;28;20047;-76
2022/11/16 04:54:18;;;;;;;16.73;13.00;;;10.90;99.90;;;;;;5095173;28;20110;-75
2022/11/16 04:56:43;;;;;;;18.65;14.43;;;10.90;99.90;;;;;;5079746;28;20044;-74
2022/11/16 04:59:10;;;;;;;16.40;12.73;;;10.90;99.90;;;;;;5082147;28;20509;-78
2022/11/16 05:04:20;;;;;;;21.98;16.58;;;10.90;99.90;;;;;;5061707;28;20048;-75
2022/11/16 05:06:46;;;;;;;18.17;15.02;;;10.90;99.90;;;;;;5069073;28;20490;-79
2022/11/16 05:09:13;;;;;;;17.92;15.07;;;10.80;99.90;;;;;;5061093;28;20043;-76
2022/11/16 05:11:39;;;;;;;17.63;13.68;;;10.90;99.90;;;;;;5083066;28;20093;-78
2022/11/16 05:14:05;;;;;;;18.77;14.43;;;10.90;99.90;;;;;;5075347;28;20564;-78
2022/11/16 05:16:32;;;;;;;19.27;15.45;;;10.90;99.90;;;;;;5084561;28;20098;-76
2022/11/16 05:21:41;;;;;;;20.00;14.73;;;10.90;99.90;;;;;;5094827;28;20051;-82
2022/11/16 05:26:51;;;;;;;19.05;15.93;;;10.90;99.90;;;;;;5091993;28;20059;-77
2022/11/16 05:29:17;;;;;;;22.52;17.02;;;10.90;99.90;;;;;;5074917;28;20040;-79
2022/11/16 05:31:42;;;;;;;19.50;15.88;;;10.90;99.90;;;;;;5106512;28;20091;-80
2022/11/16 05:34:09;;;;;;;18.33;15.20;;;10.90;99.90;;;;;;5078540;28;20040;-78
2022/11/16 05:36:35;;;;;;;19.70;16.27;;;10.90;99.90;;;;;;5052174;28;20077;-78
2022/11/16 05:39:00;;;;;;;20.55;15.43;;;10.80;99.90;;;;;;5065399;28;20097;-79
2022/11/16 05:41:26;;;;;;;21.77;17.20;;;10.80;99.90;;;;;;5081793;28;20047;-79
2022/11/16 05:43:54;;;;;;;20.95;16.83;;;10.80;99.90;;;;;;5088001;28;20089;-79
2022/11/16 05:46:20;;;;;;;22.70;18.33;;;10.80;99.90;;;;;;5080634;28;20051;-78
2022/11/16 05:48:46;;;;;;;23.10;17.88;;;10.80;99.90;;;;;;5081236;28;20043;-80
2022/11/16 05:51:11;;;;;;;21.13;17.05;;;10.80;99.90;;;;;;5070676;28;20044;-79
2022/11/16 05:53:37;;;;;;;22.40;18.25;;;10.80;99.90;;;;;;5113643;28;20493;-77
2022/11/16 05:56:03;;;;;;;20.98;16.40;;;10.80;99.90;;;;;;5065170;28;20043;-77
2022/11/16 05:58:29;;;;;;;19.35;16.90;;;10.80;99.90;;;;;;5062924;28;20066;-78
2022/11/16 06:00:56;;;;;;;21.52;17.80;;;10.90;99.90;;;;;;5085760;28;20483;-81
2022/11/16 06:03:22;;;;;;;22.98;19.40;;;10.80;99.90;;;;;;5061116;28;20052;-76
2022/11/16 06:05:47;;;;;;;26.90;21.65;;;10.70;99.90;;;;;;5078079;28;20052;-75
2022/11/16 06:08:13;;;;;;;25.33;20.85;;;10.70;99.90;;;;;;5036891;28;20723;-75
2022/11/16 06:10:39;;;;;;;26.13;22.35;;;10.70;99.90;;;;;;5081066;28;20395;-75
2022/11/16 06:13:04;;;;;;;27.20;22.50;;;10.70;99.90;;;;;;5086770;28;20073;-75
2022/11/16 06:15:30;;;;;;;25.63;20.48;;;10.60;99.90;;;;;;5084841;28;20088;-76
2022/11/16 06:17:56;;;;;;;25.90;21.73;;;10.60;99.90;;;;;;5060743;28;20051;-77
2022/11/16 06:20:21;;;;;;;23.65;19.73;;;10.70;99.90;;;;;;5095926;28;20055;-76
2022/11/16 06:22:47;;;;;;;25.92;20.45;;;10.70;99.90;;;;;;5095067;28;20054;-76
2022/11/16 06:25:13;;;;;;;25.80;20.85;;;10.70;99.90;;;;;;5073002;28;20044;-77
2022/11/16 06:27:39;;;;;;;29.92;24.45;;;10.70;99.90;;;;;;5091503;28;20046;-77
2022/11/16 06:30:06;;;;;;;28.45;24.17;;;10.70;99.90;;;;;;5060653;28;20411;-76
2022/11/16 06:32:31;;;;;;;32.03;26.27;;;10.70;99.90;;;;;;5045444;28;20048;-76
2022/11/16 06:34:57;;;;;;;24.58;21.48;;;10.70;99.90;;;;;;5084140;28;20055;-76
2022/11/16 06:37:23;;;;;;;27.27;23.02;;;10.70;99.90;;;;;;5090954;28;20046;-77
2022/11/16 06:39:49;;;;;;;30.27;25.02;;;10.70;99.90;;;;;;5076186;28;20056;-78
2022/11/16 06:42:14;;;;;;;34.20;25.83;;;10.70;99.90;;;;;;5077184;28;20039;-77
2022/11/16 06:44:40;;;;;;;28.08;24.25;;;10.70;99.90;;;;;;5080119;28;20741;-75
2022/11/16 06:47:06;;;;;;;29.88;25.08;;;10.70;99.90;;;;;;5091472;28;20038;-78
2022/11/16 06:49:31;;;;;;;34.35;27.55;;;10.70;99.90;;;;;;5074129;28;20408;-79
2022/11/16 06:51:57;;;;;;;34.75;28.27;;;10.60;99.90;;;;;;5078062;28;20118;-77
2022/11/16 06:54:23;;;;;;;33.83;27.70;;;10.60;99.90;;;;;;5094187;28;20047;-77
2022/11/16 06:56:48;;;;;;;32.35;27.27;;;10.60;99.90;;;;;;5074871;28;20047;-78
2022/11/16 06:59:14;;;;;;;33.00;27.60;;;10.60;99.90;;;;;;5051950;28;20067;-79
2022/11/16 07:01:41;;;;;;;35.85;29.45;;;10.60;99.90;;;;;;5088443;28;20127;-81
2022/11/16 07:04:10;;;;;;;30.23;25.42;;;10.60;99.90;;;;;;5108275;28;20048;-82
2022/11/16 07:06:37;;;;;;;28.95;22.95;;;10.60;99.90;;;;;;5092734;28;20107;-81
2022/11/16 07:09:08;;;;;;;25.88;20.70;;;10.60;99.90;;;;;;5089339;28;20043;-80
2022/11/16 07:11:34;;;;;;;23.52;19.27;;;10.60;99.90;;;;;;5008673;28;20082;-80
2022/11/16 07:14:01;;;;;;;20.33;17.48;;;10.60;99.90;;;;;;5102649;27;20047;-79
2022/11/16 07:16:27;;;;;;;18.83;16.83;;;10.60;99.90;;;;;;5113894;27;20503;-78
2022/11/16 07:18:55;;;;;;;18.17;14.80;;;10.60;99.90;;;;;;5112977;27;20057;-77
2022/11/16 07:21:21;;;;;;;19.15;16.95;;;10.60;99.90;;;;;;5114547;27;20054;-78
2022/11/16 07:23:46;;;;;;;19.65;16.55;;;10.60;99.90;;;;;;5095849;27;20040;-78
2022/11/16 07:26:12;;;;;;;19.33;16.92;;;10.60;99.90;;;;;;5106947;27;20096;-78
2022/11/16 07:28:38;;;;;;;19.55;16.98;;;10.60;99.90;;;;;;5113752;27;20114;-78
2022/11/16 07:31:09;;;;;;;21.13;18.85;;;10.70;99.90;;;;;;5094615;27;20032;-79
2022/11/16 07:33:35;;;;;;;21.38;18.20;;;10.70;99.90;;;;;;5107048;27;20043;-77
2022/11/16 07:36:19;;;;;;;21.88;18.80;;;10.70;99.90;;;;;;5118102;27;20120;-80
2022/11/16 07:38:45;;;;;;;23.52;19.42;;;10.70;99.90;;;;;;5110497;27;20123;-78
2022/11/16 07:41:16;;;;;;;25.38;21.63;;;10.70;99.90;;;;;;5110449;27;20459;-76
2022/11/16 07:43:42;;;;;;;23.63;21.00;;;10.70;99.90;;;;;;5097385;27;20550;-77
2022/11/16 07:46:26;;;;;;;26.40;22.67;;;10.70;99.90;;;;;;5113583;27;20032;-76
2022/11/16 07:48:52;;;;;;;26.38;22.90;;;10.70;99.90;;;;;;5092029;27;20067;-75
2022/11/16 07:51:19;;;;;;;32.00;26.23;;;10.70;99.90;;;;;;5111787;27;20053;-76
2022/11/16 07:53:45;;;;;;;30.63;25.08;;;10.70;99.90;;;;;;5111993;27;20132;-77
2022/11/16 07:56:11;;;;;;;28.98;24.05;;;10.70;99.90;;;;;;5109764;27;20077;-75
2022/11/16 07:58:38;;;;;;;28.15;24.42;;;10.70;99.90;;;;;;5109782;27;20054;-76
2022/11/16 08:01:10;;;;;;;27.67;23.80;;;10.80;99.90;;;;;;5109911;27;20042;-76
2022/11/16 08:03:36;;;;;;;27.67;22.65;;;10.80;99.90;;;;;;5093644;27;20103;-78
2022/11/16 08:06:09;;;;;;;26.83;22.92;;;10.80;99.90;;;;;;5112297;27;20052;-82
2022/11/16 08:08:35;;;;;;;25.63;22.10;;;10.80;99.90;;;;;;5109938;27;20058;-76
2022/11/16 08:11:03;;;;;;;27.88;24.20;;;10.90;99.90;;;;;;5130872;27;20485;-79
2022/11/16 08:13:32;;;;;;;26.83;23.33;;;10.90;99.90;;;;;;5112233;27;20051;-76
2022/11/16 08:16:19;;;;;;;27.55;24.55;;;10.80;99.90;;;;;;5113499;27;20039;-75
2022/11/16 08:18:45;;;;;;;28.58;25.15;;;10.80;99.90;;;;;;5108850;27;20048;-76
2022/11/16 08:21:14;;;;;;;31.10;25.65;;;10.80;99.90;;;;;;5109528;28;20548;-76
2022/11/16 08:23:40;;;;;;;33.05;27.15;;;10.70;99.90;;;;;;5108146;28;20043;-75
2022/11/16 08:26:13;;;;;;;32.85;25.40;;;10.70;99.90;;;;;;5113761;27;20035;-73
2022/11/16 08:28:39;;;;;;;29.98;25.00;;;10.80;99.90;;;;;;5112826;27;20525;-76
2022/11/16 08:31:12;;;;;;;29.10;25.02;;;10.80;99.90;;;;;;5111445;27;20047;-75
2022/11/16 08:33:38;;;;;;;29.13;24.45;;;10.80;99.90;;;;;;5095973;27;20042;-75
2022/11/16 08:36:09;;;;;;;29.95;24.58;;;10.80;99.90;;;;;;5111612;27;20043;-74
2022/11/16 08:38:34;;;;;;;28.83;24.92;;;10.80;99.90;;;;;;5111976;27;20677;-75
2022/11/16 08:41:00;;;;;;;29.30;25.27;;;10.80;99.90;;;;;;5128207;27;20130;-75
2022/11/16 08:43:26;;;;;;;28.77;25.42;;;10.80;99.90;;;;;;5112495;27;20093;-75
2022/11/16 08:45:54;;;;;;;29.98;25.13;;;10.80;99.90;;;;;;5112790;27;20044;-75
2022/11/16 08:48:20;;;;;;;31.45;26.65;;;10.90;99.90;;;;;;5110141;28;20100;-75
2022/11/16 08:50:46;;;;;;;31.60;26.40;;;10.80;99.90;;;;;;5111946;28;20444;-75
2022/11/16 08:53:14;;;;;;;29.38;25.67;;;10.90;99.90;;;;;;5107664;28;20111;-75
2022/11/16 08:55:41;;;;;;;30.45;25.58;;;10.90;99.90;;;;;;5108257;27;20047;-74
2022/11/16 08:58:07;;;;;;;30.77;25.88;;;10.90;99.90;;;;;;5075442;27;20140;-76
2022/11/16 09:00:33;;;;;;;32.35;26.73;;;10.90;99.90;;;;;;5093579;27;20469;-75
2022/11/16 09:02:59;;;;;;;31.30;27.13;;;10.90;99.90;;;;;;5110044;27;20160;-73
2022/11/16 09:05:24;;;;;;;32.17;26.85;;;11.00;99.90;;;;;;5102427;28;20067;-74
2022/11/16 09:07:50;;;;;;;32.42;27.35;;;11.00;99.90;;;;;;5092925;27;20047;-74
2022/11/16 09:10:21;;;;;;;34.13;29.13;;;11.00;99.90;;;;;;5088770;28;20074;-73
2022/11/16 09:12:50;;;;;;;29.40;24.67;;;11.00;99.90;;;;;;5087796;27;20059;-74
2022/11/16 09:15:18;;;;;;;33.40;28.42;;;11.10;99.90;;;;;;5108675;27;20039;-73
2022/11/16 09:17:44;;;;;;;31.98;28.30;;;11.10;99.90;;;;;;5109480;27;20059;-73
2022/11/16 09:20:10;;;;;;;30.40;26.60;;;11.10;99.90;;;;;;5112613;28;20051;-74
2022/11/16 09:22:36;;;;;;;33.75;28.52;;;11.10;99.90;;;;;;5113170;28;20039;-75
2022/11/16 09:25:02;;;;;;;35.60;28.98;;;11.20;99.90;;;;;;5112480;28;20048;-74
2022/11/16 09:27:27;;;;;;;33.67;29.85;;;11.20;99.90;;;;;;5092552;27;20483;-76
2022/11/16 09:29:53;;;;;;;36.15;31.25;;;11.30;99.90;;;;;;5111212;28;20044;-75
2022/11/16 09:32:19;;;;;;;40.45;32.72;;;11.30;99.90;;;;;;5111474;28;20047;-75
2022/11/16 09:34:44;;;;;;;36.97;30.63;;;11.30;99.90;;;;;;5095246;28;20479;-75
2022/11/16 09:37:10;;;;;;;34.88;30.10;;;11.40;99.90;;;;;;5108428;28;20054;-74
2022/11/16 09:39:36;;;;;;;34.28;30.05;;;11.40;99.90;;;;;;5106323;28;20082;-74
2022/11/16 09:42:43;;;;;;;35.47;29.77;;;11.50;99.90;;;;;;5109086;28;20047;-75
2022/11/16 09:45:22;;;;;;;33.08;29.17;;;11.50;99.90;;;;;;5110105;28;20035;-73
2022/11/16 09:47:56;;;;;;;37.85;31.38;;;11.50;99.90;;;;;;5093410;28;20372;-73
2022/11/16 09:50:56;;;;;;;39.95;32.38;;;11.50;99.90;;;;;;5108765;28;20069;-73
2022/11/16 09:53:35;;;;;;;39.70;31.63;;;11.50;99.90;;;;;;5124265;28;20048;-73
2022/11/16 09:56:06;;;;;;;35.95;29.75;;;11.50;99.90;;;;;;5110072;28;20119;-73
2022/11/16 09:59:00;;;;;;;35.05;29.25;;;11.50;99.90;;;;;;5109325;28;20050;-75
2022/11/16 10:01:34;;;;;;;35.75;29.90;;;11.60;99.90;;;;;;5107898;28;20050;-73
2022/11/16 10:04:21;;;;;;;29.15;25.38;;;11.60;99.90;;;;;;5109183;28;20043;-75
2022/11/16 10:07:16;;;;;;;27.90;23.25;;;11.80;99.90;;;;;;5111210;28;20571;-73
2022/11/16 10:09:43;;;;;;;26.25;22.48;;;11.80;99.90;;;;;;5097326;28;20059;-73
2022/11/16 10:12:33;;;;;;;27.52;22.95;;;11.90;99.90;;;;;;5110231;28;20359;-73
2022/11/16 10:15:36;;;;;;;25.25;21.90;;;11.80;99.90;;;;;;5105050;28;20040;-73
2022/11/16 10:18:18;;;;;;;31.10;23.42;;;11.90;99.90;;;;;;5109262;27;20368;-72
2022/11/16 10:21:00;;;;;;;30.70;22.52;;;11.90;99.90;;;;;;5114662;27;20036;-73
2022/11/16 10:23:29;;;;;;;28.35;22.17;;;12.10;99.90;;;;;;5113003;27;20039;-73
2022/11/16 10:26:30;;;;;;;31.52;22.25;;;12.20;99.90;;;;;;5096401;27;20122;-71
2022/11/16 10:29:09;;;;;;;25.80;18.80;;;12.40;99.90;;;;;;5111918;27;20060;-74
2022/11/16 10:31:49;;;;;;;19.85;16.00;;;12.50;99.90;;;;;;5112226;27;20085;-73
2022/11/16 10:34:23;;;;;;;19.58;15.57;;;12.50;99.90;;;;;;5108346;28;20574;-73
2022/11/16 10:36:49;;;;;;;18.13;14.20;;;12.50;99.90;;;;;;5112937;27;20062;-73
2022/11/16 10:39:18;;;;;;;18.00;13.52;;;12.40;99.90;;;;;;5110532;27;20048;-74
2022/11/16 10:41:49;;;;;;;15.07;12.00;;;12.40;99.90;;;;;;5112604;27;20410;-73
2022/11/16 10:44:26;;;;;;;17.75;12.20;;;12.30;99.90;;;;;;5095104;27;20123;-72
2022/11/16 10:47:22;;;;;;;15.20;11.43;;;12.20;99.90;;;;;;5096878;27;20125;-73
2022/11/16 10:50:03;;;;;;;16.13;11.63;;;12.20;99.90;;;;;;5112667;27;20043;-73
2022/11/16 10:52:28;;;;;;;13.13;10.13;;;12.20;99.90;;;;;;5113555;27;20422;-72
2022/11/16 10:54:54;;;;;;;16.88;11.00;;;12.20;99.90;;;;;;5110119;27;20174;-73
2022/11/16 10:57:22;;;;;;;15.98;9.85;;;12.20;99.90;;;;;;5111958;27;20475;-73
2022/11/16 10:59:54;;;;;;;17.85;9.98;;;12.20;99.90;;;;;;5112698;27;20051;-73
2022/11/16 11:02:36;;;;;;;14.63;9.10;;;12.20;99.90;;;;;;5080227;27;20043;-73
2022/11/16 11:05:04;;;;;;;13.82;8.10;;;12.20;99.90;;;;;;5126148;27;20046;-73
2022/11/16 11:07:38;;;;;;;12.80;8.50;;;12.10;99.90;;;;;;5091805;27;20108;-73
2022/11/16 11:10:09;;;;;;;13.18;7.82;;;12.10;99.90;;;;;;5109228;27;20108;-73
2022/11/16 11:12:37;;;;;;;14.35;8.05;;;12.10;99.90;;;;;;5111722;27;20052;-74
2022/11/16 11:15:21;;;;;;;15.95;8.57;;;11.90;99.90;;;;;;5069093;28;20051;-73
2022/11/16 11:17:48;;;;;;;14.10;8.57;;;11.90;99.90;;;;;;5112258;27;20413;-74
2022/11/16 11:20:20;;;;;;;12.93;7.75;;;11.90;99.90;;;;;;5108821;27;20051;-74
2022/11/16 11:22:54;;;;;;;11.35;7.35;;;11.90;99.90;;;;;;5103363;28;20168;-74
2022/11/16 11:25:31;;;;;;;12.60;5.95;;;11.90;99.90;;;;;;5109079;27;20043;-74
2022/11/16 11:28:06;;;;;;;10.65;5.70;;;11.90;99.90;;;;;;5103024;28;20051;-74
2022/11/16 11:30:33;;;;;;;11.75;5.30;;;12.00;99.90;;;;;;5079651;28;20043;-73
2022/11/16 11:32:59;;;;;;;11.80;4.97;;;12.00;99.90;;;;;;5116323;27;20050;-74
2022/11/16 11:35:31;;;;;;;12.07;4.30;;;12.00;99.90;;;;;;5105171;28;20036;-76
2022/11/16 11:38:00;;;;;;;9.70;4.20;;;12.10;99.90;;;;;;5077449;28;20490;-75
2022/11/16 11:40:31;;;;;;;12.18;4.28;;;12.10;99.90;;;;;;5095306;28;20114;-74
2022/11/16 11:42:58;;;;;;;9.85;4.30;;;12.20;99.90;;;;;;5095173;27;20393;-75
2022/11/16 11:45:43;;;;;;;11.48;4.50;;;12.30;99.90;;;;;;5105658;27;20398;-74
2022/11/16 11:48:19;;;;;;;10.18;3.83;;;12.30;99.90;;;;;;5114992;27;20478;-73
2022/11/16 11:51:01;;;;;;;11.15;3.70;;;12.40;99.90;;;;;;5084022;28;20054;-76
2022/11/16 11:53:44;;;;;;;8.98;3.65;;;12.40;99.90;;;;;;5116749;27;20559;-77
2022/11/16 11:56:12;;;;;;;12.35;3.83;;;12.50;99.90;;;;;;5096527;28;20043;-76
2022/11/16 11:58:39;;;;;;;9.48;3.78;;;12.50;99.90;;;;;;5098346;27;20491;-75
2022/11/16 12:01:26;;;;;;;13.85;3.72;;;12.50;99.90;;;;;;5096678;28;20047;-75
2022/11/16 12:04:11;;;;;;;11.43;3.65;;;12.60;99.90;;;;;;5113138;27;20038;-76
2022/11/16 12:06:50;;;;;;;12.75;3.85;;;12.60;99.90;;;;;;5113583;28;20096;-76
2022/11/16 12:09:31;;;;;;;12.38;3.53;;;12.70;99.90;;;;;;5099287;28;20368;-75
2022/11/16 12:12:06;;;;;;;10.52;3.65;;;12.60;99.90;;;;;;5110765;27;20050;-76
2022/11/16 12:14:58;;;;;;;11.32;3.47;;;12.70;99.90;;;;;;5079126;28;20088;-75
2022/11/16 12:17:27;;;;;;;12.10;3.47;;;12.70;99.90;;;;;;5095276;28;20062;-76
2022/11/16 12:20:11;;;;;;;12.50;3.30;;;12.80;99.90;;;;;;5112505;28;20447;-75
2022/11/16 12:23:15;;;;;;;10.15;3.03;;;12.70;99.90;;;;;;5112527;28;20127;-76
2022/11/16 12:26:06;;;;;;;9.18;3.20;;;12.70;99.90;;;;;;5100129;28;20079;-75
2022/11/16 12:28:50;;;;;;;10.23;3.38;;;12.70;99.90;;;;;;5092678;28;20039;-75
2022/11/16 12:31:22;;;;;;;12.38;3.35;;;12.60;99.90;;;;;;5106607;28;20040;-75
2022/11/16 12:34:05;;;;;;;11.52;3.60;;;12.70;99.90;;;;;;5075172;28;20085;-75
2022/11/16 12:36:30;;;;;;;10.27;3.28;;;12.70;99.90;;;;;;5098423;28;20403;-75
2022/11/16 12:39:42;;;;;;;11.95;3.40;;;12.70;99.90;;;;;;5092212;28;20052;-74
2022/11/16 12:42:39;;;;;;;8.55;2.97;;;12.60;99.90;;;;;;5081846;28;20109;-74
2022/11/16 12:45:26;;;;;;;11.95;3.35;;;12.60;99.90;;;;;;5098558;28;20087;-73
2022/11/16 12:48:24;;;;;;;12.27;2.97;;;12.50;99.90;;;;;;5112501;28;20549;-76
2022/11/16 12:51:17;;;;;;;10.20;2.70;;;12.50;99.90;;;;;;5079430;28;20063;-74
2022/11/16 12:53:51;;;;;;;12.25;2.80;;;12.40;99.90;;;;;;5090220;28;20052;-74
2022/11/16 12:56:44;;;;;;;12.77;3.00;;;12.30;99.90;;;;;;5103599;28;20054;-74
2022/11/16 12:59:35;;;;;;;10.80;2.58;;;12.20;99.90;;;;;;5092584;28;20387;-74
2022/11/16 13:02:14;;;;;;;9.77;2.85;;;12.20;99.90;;;;;;5108431;28;20053;-73
2022/11/16 13:04:49;;;;;;;12.20;2.88;;;12.20;99.90;;;;;;5083972;28;20052;-74
2022/11/16 13:07:28;;;;;;;11.27;2.60;;;12.20;99.90;;;;;;5105629;28;20084;-73
2022/11/16 13:10:04;;;;;;;10.10;2.80;;;12.30;99.90;;;;;;5075068;28;20086;-75
2022/11/16 13:12:31;;;;;;;13.25;3.00;;;12.20;99.90;;;;;;5093730;28;20051;-72
2022/11/16 13:14:59;;;;;;;10.25;2.58;;;12.20;99.90;;;;;;5084019;28;20044;-72
2022/11/16 13:17:28;;;;;;;10.95;2.55;;;12.20;99.90;;;;;;5109106;28;20058;-73
2022/11/16 13:20:03;;;;;;;11.90;2.75;;;12.10;99.90;;;;;;5111808;28;20475;-73
2022/11/16 13:22:33;;;;;;;10.55;2.58;;;12.10;99.90;;;;;;5094760;28;20400;-73
2022/11/16 13:25:22;;;;;;;8.05;2.38;;;12.10;99.90;;;;;;5098754;28;20491;-74
2022/11/16 13:27:54;;;;;;;11.45;2.67;;;12.10;99.90;;;;;;5092570;28;20594;-73
2022/11/16 13:30:47;;;;;;;14.80;2.63;;;12.00;99.90;;;;;;5086977;28;20047;-73
2022/11/16 13:33:15;;;;;;;12.75;2.50;;;12.00;99.90;;;;;;5098315;28;20043;-73
2022/11/16 13:35:41;;;;;;;12.95;2.50;;;12.00;99.90;;;;;;5097759;28;20077;-73
2022/11/16 13:38:13;;;;;;;10.10;2.58;;;11.90;99.90;;;;;;5109893;28;20123;-72
2022/11/16 13:40:40;;;;;;;14.50;3.25;;;11.90;99.90;;;;;;5108737;28;20048;-73
2022/11/16 13:43:16;;;;;;;10.32;2.60;;;11.80;99.90;;;;;;5108857;28;20471;-73